sensor_id;sensor_type;location;lat;lon;timestamp;pressure;altitude;pressure_sealevel;temperature;humidity
65175;BME280;51761;42.126;24.752;2023-05-23T00:00:41;99329.03;;;15.72;89.96
65175;BME280;51761;42.126;24.752;2023-05-23T00:03:06;99345.00;;;15.84;89.87
65175;BME280;51761;42.126;24.752;2023-05-23T00:05:33;99341.25;;;15.78;89.00
65175;BME280;51761;42.126;24.752;2023-05-23T00:08:00;99341.88;;;15.82;88.46
65175;BME280;51761;42.126;24.752;2023-05-23T00:10:26;99340.94;;;15.85;88.20
65175;BME280;51761;42.126;24.752;2023-05-23T00:12:51;99338.63;;;15.92;87.61
65175;BME280;51761;42.126;24.752;2023-05-23T00:15:17;99350.63;;;15.84;87.99
65175;BME280;51761;42.126;24.752;2023-05-23T00:17:43;99344.41;;;15.89;87.27
65175;BME280;51761;42.126;24.752;2023-05-23T00:20:09;99351.00;;;15.95;87.47
65175;BME280;51761;42.126;24.752;2023-05-23T00:22:36;99329.97;;;15.78;87.41
65175;BME280;51761;42.126;24.752;2023-05-23T00:25:05;99320.72;;;15.69;87.41
65175;BME280;51761;42.126;24.752;2023-05-23T00:27:31;99344.06;;;15.87;86.88
65175;BME280;51761;42.126;24.752;2023-05-23T00:29:56;99337.66;;;15.87;87.66
65175;BME280;51761;42.126;24.752;2023-05-23T00:32:22;99341.31;;;15.96;86.92
65175;BME280;51761;42.126;24.752;2023-05-23T00:34:47;99336.75;;;15.89;87.67
65175;BME280;51761;42.126;24.752;2023-05-23T00:37:13;99336.75;;;15.89;87.33
65175;BME280;51761;42.126;24.752;2023-05-23T00:39:42;99331.72;;;15.85;87.62
65175;BME280;51761;42.126;24.752;2023-05-23T00:42:07;99328.28;;;15.81;89.13
65175;BME280;51761;42.126;24.752;2023-05-23T00:44:33;99325.34;;;15.93;88.75
65175;BME280;51761;42.126;24.752;2023-05-23T00:46:59;99315.13;;;15.78;88.18
65175;BME280;51761;42.126;24.752;2023-05-23T00:49:24;99334.34;;;15.79;89.15
65175;BME280;51761;42.126;24.752;2023-05-23T00:51:52;99330.91;;;15.75;89.17
65175;BME280;51761;42.126;24.752;2023-05-23T00:54:22;99330.28;;;15.71;89.54
65175;BME280;51761;42.126;24.752;2023-05-23T00:56:48;99318.50;;;15.64;89.57
65175;BME280;51761;42.126;24.752;2023-05-23T00:59:14;99332.97;;;15.75;89.09
65175;BME280;51761;42.126;24.752;2023-05-23T01:01:41;99331.84;;;15.81;88.76
65175;BME280;51761;42.126;24.752;2023-05-23T01:04:08;99340.25;;;15.63;89.16
65175;BME280;51761;42.126;24.752;2023-05-23T01:06:34;99324.00;;;15.67;89.22
65175;BME280;51761;42.126;24.752;2023-05-23T01:09:00;99330.94;;;15.45;90.41
65175;BME280;51761;42.126;24.752;2023-05-23T01:11:33;99326.09;;;15.45;91.51
65175;BME280;51761;42.126;24.752;2023-05-23T01:14:09;99259.13;;;15.01;91.61
65175;BME280;51761;42.126;24.752;2023-05-23T01:16:47;99327.34;;;15.44;92.42
65175;BME280;51761;42.126;24.752;2023-05-23T01:19:39;99327.97;;;15.39;92.25
65175;BME280;51761;42.126;24.752;2023-05-23T01:22:13;99319.66;;;15.36;93.41
65175;BME280;51761;42.126;24.752;2023-05-23T01:24:56;99325.44;;;15.32;93.15
65175;BME280;51761;42.126;24.752;2023-05-23T01:27:49;99307.78;;;15.10;95.04
65175;BME280;51761;42.126;24.752;2023-05-23T01:30:18;99312.41;;;15.26;94.32
65175;BME280;51761;42.126;24.752;2023-05-23T01:32:47;99310.91;;;15.12;95.26
65175;BME280;51761;42.126;24.752;2023-05-23T01:35:17;99295.50;;;14.95;95.40
65175;BME280;51761;42.126;24.752;2023-05-23T01:37:46;99314.66;;;15.09;96.11
65175;BME280;51761;42.126;24.752;2023-05-23T01:40:11;99315.00;;;15.20;94.70
65175;BME280;51761;42.126;24.752;2023-05-23T01:42:37;99313.72;;;15.12;93.93
65175;BME280;51761;42.126;24.752;2023-05-23T01:45:03;99315.75;;;15.12;93.03
65175;BME280;51761;42.126;24.752;2023-05-23T01:47:28;99320.00;;;15.16;92.90
65175;BME280;51761;42.126;24.752;2023-05-23T01:49:56;99313.13;;;15.17;92.03
65175;BME280;51761;42.126;24.752;2023-05-23T01:52:22;99303.41;;;15.09;91.60
65175;BME280;51761;42.126;24.752;2023-05-23T01:54:48;99322.81;;;15.16;91.27
65175;BME280;51761;42.126;24.752;2023-05-23T01:57:15;99299.94;;;15.05;91.02
65175;BME280;51761;42.126;24.752;2023-05-23T01:59:40;99305.25;;;15.03;90.96
65175;BME280;51761;42.126;24.752;2023-05-23T02:02:06;99297.06;;;14.96;91.75
65175;BME280;51761;42.126;24.752;2023-05-23T02:04:31;99317.19;;;15.16;91.18
65175;BME280;51761;42.126;24.752;2023-05-23T02:06:57;99306.53;;;15.11;90.96
65175;BME280;51761;42.126;24.752;2023-05-23T02:09:22;99242.06;;;14.65;91.83
65175;BME280;51761;42.126;24.752;2023-05-23T02:11:47;99313.09;;;15.08;92.18
65175;BME280;51761;42.126;24.752;2023-05-23T02:14:13;99277.16;;;14.82;92.46
65175;BME280;51761;42.126;24.752;2023-05-23T02:16:38;99301.00;;;14.99;93.16
65175;BME280;51761;42.126;24.752;2023-05-23T02:19:04;99288.88;;;14.80;92.28
65175;BME280;51761;42.126;24.752;2023-05-23T02:21:29;99288.59;;;14.87;92.13
65175;BME280;51761;42.126;24.752;2023-05-23T02:23:56;99298.00;;;14.93;91.88
65175;BME280;51761;42.126;24.752;2023-05-23T02:26:21;99310.47;;;14.92;91.60
65175;BME280;51761;42.126;24.752;2023-05-23T02:28:47;99313.94;;;14.96;92.44
65175;BME280;51761;42.126;24.752;2023-05-23T02:31:12;99304.84;;;14.92;92.09
65175;BME280;51761;42.126;24.752;2023-05-23T02:33:37;99263.91;;;14.61;92.04
65175;BME280;51761;42.126;24.752;2023-05-23T02:36:03;99315.56;;;14.85;92.18
65175;BME280;51761;42.126;24.752;2023-05-23T02:38:29;99313.88;;;14.87;92.04
65175;BME280;51761;42.126;24.752;2023-05-23T02:40:55;99313.56;;;14.85;92.13
65175;BME280;51761;42.126;24.752;2023-05-23T02:43:22;99306.38;;;14.84;92.89
65175;BME280;51761;42.126;24.752;2023-05-23T02:45:48;99311.53;;;14.86;92.89
65175;BME280;51761;42.126;24.752;2023-05-23T02:48:13;99312.91;;;14.81;93.00
65175;BME280;51761;42.126;24.752;2023-05-23T02:50:39;99281.00;;;14.54;93.54
65175;BME280;51761;42.126;24.752;2023-05-23T02:53:04;99308.34;;;14.75;92.67
65175;BME280;51761;42.126;24.752;2023-05-23T02:55:30;99294.28;;;14.75;91.59
65175;BME280;51761;42.126;24.752;2023-05-23T02:57:56;99308.06;;;14.82;91.63
65175;BME280;51761;42.126;24.752;2023-05-23T03:00:23;99302.91;;;14.80;91.58
65175;BME280;51761;42.126;24.752;2023-05-23T03:02:48;99288.03;;;14.49;92.61
65175;BME280;51761;42.126;24.752;2023-05-23T03:05:14;99305.31;;;14.69;92.29
65175;BME280;51761;42.126;24.752;2023-05-23T03:07:40;99289.53;;;14.63;91.97
65175;BME280;51761;42.126;24.752;2023-05-23T03:10:06;99303.44;;;14.66;92.63
65175;BME280;51761;42.126;24.752;2023-05-23T03:12:32;99300.31;;;14.64;92.45
65175;BME280;51761;42.126;24.752;2023-05-23T03:14:57;99301.16;;;14.74;91.88
65175;BME280;51761;42.126;24.752;2023-05-23T03:17:24;99301.69;;;14.81;90.99
65175;BME280;51761;42.126;24.752;2023-05-23T03:19:50;99308.78;;;14.73;90.68
65175;BME280;51761;42.126;24.752;2023-05-23T03:22:15;99313.16;;;14.74;90.51
65175;BME280;51761;42.126;24.752;2023-05-23T03:24:41;99288.13;;;14.67;94.47
65175;BME280;51761;42.126;24.752;2023-05-23T03:27:07;99314.09;;;14.93;94.78
65175;BME280;51761;42.126;24.752;2023-05-23T03:29:33;99307.22;;;14.94;94.46
65175;BME280;51761;42.126;24.752;2023-05-23T03:31:58;99289.63;;;14.81;89.77
65175;BME280;51761;42.126;24.752;2023-05-23T03:34:24;99293.94;;;14.94;95.34
65175;BME280;51761;42.126;24.752;2023-05-23T03:36:51;99302.25;;;14.98;90.52
65175;BME280;51761;42.126;24.752;2023-05-23T03:39:17;99317.06;;;15.20;91.52
65175;BME280;51761;42.126;24.752;2023-05-23T03:41:42;99308.44;;;15.14;90.20
65175;BME280;51761;42.126;24.752;2023-05-23T03:44:08;99307.47;;;15.08;87.98
65175;BME280;51761;42.126;24.752;2023-05-23T03:46:33;99283.59;;;14.91;87.25
65175;BME280;51761;42.126;24.752;2023-05-23T03:48:59;99309.63;;;15.04;87.41
65175;BME280;51761;42.126;24.752;2023-05-23T03:51:24;99313.41;;;15.10;86.88
65175;BME280;51761;42.126;24.752;2023-05-23T03:53:50;99312.31;;;15.17;85.50
65175;BME280;51761;42.126;24.752;2023-05-23T03:56:15;99312.81;;;15.15;84.74
65175;BME280;51761;42.126;24.752;2023-05-23T03:58:41;99316.53;;;15.12;84.75
65175;BME280;51761;42.126;24.752;2023-05-23T04:01:06;99322.81;;;15.16;84.72
65175;BME280;51761;42.126;24.752;2023-05-23T04:03:33;99318.75;;;15.17;84.54
65175;BME280;51761;42.126;24.752;2023-05-23T04:05:59;99300.31;;;15.16;83.73
65175;BME280;51761;42.126;24.752;2023-05-23T04:08:26;99319.53;;;15.39;83.54
65175;BME280;51761;42.126;24.752;2023-05-23T04:10:51;99320.56;;;15.33;83.28
65175;BME280;51761;42.126;24.752;2023-05-23T04:13:17;99298.75;;;15.15;84.04
65175;BME280;51761;42.126;24.752;2023-05-23T04:15:43;99304.97;;;15.41;83.37
65175;BME280;51761;42.126;24.752;2023-05-23T04:18:09;99305.28;;;15.43;82.54
65175;BME280;51761;42.126;24.752;2023-05-23T04:20:34;99328.22;;;15.72;81.45
65175;BME280;51761;42.126;24.752;2023-05-23T04:23:00;99321.72;;;15.84;80.52
65175;BME280;51761;42.126;24.752;2023-05-23T04:25:25;99299.00;;;15.87;80.20
65175;BME280;51761;42.126;24.752;2023-05-23T04:27:51;99300.94;;;15.99;78.84
65175;BME280;51761;42.126;24.752;2023-05-23T04:30:18;99328.22;;;16.20;79.29
65175;BME280;51761;42.126;24.752;2023-05-23T04:32:44;99335.91;;;16.37;78.91
65175;BME280;51761;42.126;24.752;2023-05-23T04:35:11;99310.38;;;16.41;79.06
65175;BME280;51761;42.126;24.752;2023-05-23T04:37:36;99341.41;;;16.59;79.78
65175;BME280;51761;42.126;24.752;2023-05-23T04:40:04;99327.31;;;16.77;77.46
65175;BME280;51761;42.126;24.752;2023-05-23T04:42:31;99335.59;;;16.80;77.56
65175;BME280;51761;42.126;24.752;2023-05-23T04:44:57;99284.72;;;16.57;78.51
65175;BME280;51761;42.126;24.752;2023-05-23T04:47:23;99314.59;;;16.81;78.54
65175;BME280;51761;42.126;24.752;2023-05-23T04:49:53;99313.47;;;16.97;77.59
65175;BME280;51761;42.126;24.752;2023-05-23T04:52:19;99330.38;;;17.15;77.34
65175;BME280;51761;42.126;24.752;2023-05-23T04:54:45;99314.19;;;17.24;76.50
65175;BME280;51761;42.126;24.752;2023-05-23T04:57:13;99319.97;;;17.39;77.55
65175;BME280;51761;42.126;24.752;2023-05-23T04:59:38;99317.88;;;17.57;76.30
65175;BME280;51761;42.126;24.752;2023-05-23T05:02:04;99337.88;;;17.77;74.38
65175;BME280;51761;42.126;24.752;2023-05-23T05:04:30;99338.53;;;17.95;74.12
65175;BME280;51761;42.126;24.752;2023-05-23T05:06:56;99340.66;;;18.09;73.84
65175;BME280;51761;42.126;24.752;2023-05-23T05:09:22;99311.78;;;18.05;74.02
65175;BME280;51761;42.126;24.752;2023-05-23T05:11:47;99333.88;;;18.39;81.32
65175;BME280;51761;42.126;24.752;2023-05-23T05:14:13;99340.75;;;18.47;71.85
65175;BME280;51761;42.126;24.752;2023-05-23T05:16:38;99334.63;;;18.63;71.69
65175;BME280;51761;42.126;24.752;2023-05-23T05:19:04;99351.25;;;18.85;71.63
65175;BME280;51761;42.126;24.752;2023-05-23T05:21:29;99323.56;;;18.89;70.18
65175;BME280;51761;42.126;24.752;2023-05-23T05:23:55;99352.09;;;19.14;70.01
65175;BME280;51761;42.126;24.752;2023-05-23T05:26:22;99346.84;;;19.22;69.06
65175;BME280;51761;42.126;24.752;2023-05-23T05:28:47;99354.66;;;19.41;67.93
65175;BME280;51761;42.126;24.752;2023-05-23T05:31:13;99338.06;;;19.34;70.51
65175;BME280;51761;42.126;24.752;2023-05-23T05:33:40;99350.84;;;19.44;73.63
65175;BME280;51761;42.126;24.752;2023-05-23T05:36:06;99350.44;;;19.51;72.91
65175;BME280;51761;42.126;24.752;2023-05-23T05:38:31;99339.91;;;19.51;67.28
65175;BME280;51761;42.126;24.752;2023-05-23T05:40:57;99341.75;;;19.54;72.08
65175;BME280;51761;42.126;24.752;2023-05-23T05:43:24;99356.44;;;19.87;70.67
65175;BME280;51761;42.126;24.752;2023-05-23T05:45:50;99359.38;;;19.93;67.56
65175;BME280;51761;42.126;24.752;2023-05-23T05:48:15;99363.00;;;20.28;74.07
65175;BME280;51761;42.126;24.752;2023-05-23T05:50:41;99354.63;;;20.39;72.57
65175;BME280;51761;42.126;24.752;2023-05-23T05:53:12;99369.97;;;20.47;65.11
65175;BME280;51761;42.126;24.752;2023-05-23T05:55:38;99353.22;;;20.69;71.07
65175;BME280;51761;42.126;24.752;2023-05-23T05:58:03;99348.38;;;20.94;73.76
65175;BME280;51761;42.126;24.752;2023-05-23T06:00:29;99369.88;;;21.01;62.67
65175;BME280;51761;42.126;24.752;2023-05-23T06:02:55;99352.19;;;21.11;66.68
65175;BME280;51761;42.126;24.752;2023-05-23T06:05:23;99364.72;;;21.25;66.55
65175;BME280;51761;42.126;24.752;2023-05-23T06:07:49;99366.00;;;21.49;61.00
65175;BME280;51761;42.126;24.752;2023-05-23T06:10:15;99350.63;;;21.61;65.22
65175;BME280;51761;42.126;24.752;2023-05-23T06:12:41;99372.44;;;21.75;62.77
65175;BME280;51761;42.126;24.752;2023-05-23T06:15:07;99365.38;;;21.96;63.53
65175;BME280;51761;42.126;24.752;2023-05-23T06:17:34;99356.72;;;22.16;66.38
65175;BME280;51761;42.126;24.752;2023-05-23T06:20:00;99357.97;;;22.46;64.01
65175;BME280;51761;42.126;24.752;2023-05-23T06:22:25;99351.53;;;22.51;58.96
65175;BME280;51761;42.126;24.752;2023-05-23T06:24:51;99354.59;;;22.48;57.54
65175;BME280;51761;42.126;24.752;2023-05-23T06:27:16;99337.28;;;22.51;57.17
65175;BME280;51761;42.126;24.752;2023-05-23T06:29:41;99348.19;;;22.58;55.89
65175;BME280;51761;42.126;24.752;2023-05-23T06:32:07;99335.47;;;22.48;55.82
65175;BME280;51761;42.126;24.752;2023-05-23T06:34:33;99362.94;;;22.62;55.80
65175;BME280;51761;42.126;24.752;2023-05-23T06:36:58;99352.34;;;22.68;57.26
65175;BME280;51761;42.126;24.752;2023-05-23T06:39:24;99362.47;;;22.74;56.72
65175;BME280;51761;42.126;24.752;2023-05-23T06:41:49;99343.06;;;22.78;53.60
65175;BME280;51761;42.126;24.752;2023-05-23T06:44:15;99344.72;;;23.01;56.82
65175;BME280;51761;42.126;24.752;2023-05-23T06:46:44;99350.00;;;23.36;54.95
65175;BME280;51761;42.126;24.752;2023-05-23T06:49:10;99354.66;;;23.39;52.68
65175;BME280;51761;42.126;24.752;2023-05-23T06:51:36;99349.50;;;23.65;52.69
65175;BME280;51761;42.126;24.752;2023-05-23T06:54:01;99348.22;;;23.71;52.69
65175;BME280;51761;42.126;24.752;2023-05-23T06:56:27;99354.19;;;23.90;52.79
65175;BME280;51761;42.126;24.752;2023-05-23T06:58:52;99334.44;;;24.03;53.56
65175;BME280;51761;42.126;24.752;2023-05-23T07:01:18;99357.03;;;23.90;51.62
65175;BME280;51761;42.126;24.752;2023-05-23T07:03:43;99344.88;;;23.84;51.32
65175;BME280;51761;42.126;24.752;2023-05-23T07:06:10;99323.03;;;24.03;50.87
65175;BME280;51761;42.126;24.752;2023-05-23T07:08:37;99338.25;;;24.43;50.59
65175;BME280;51761;42.126;24.752;2023-05-23T07:11:02;99315.97;;;24.93;50.48
65175;BME280;51761;42.126;24.752;2023-05-23T07:13:28;99330.06;;;25.67;47.90
65175;BME280;51761;42.126;24.752;2023-05-23T07:15:54;99342.84;;;27.28;45.06
65175;BME280;51761;42.126;24.752;2023-05-23T07:18:20;99342.25;;;28.68;42.00
65175;BME280;51761;42.126;24.752;2023-05-23T07:20:45;99340.81;;;29.46;38.62
65175;BME280;51761;42.126;24.752;2023-05-23T07:23:11;99339.09;;;30.25;38.19
65175;BME280;51761;42.126;24.752;2023-05-23T07:25:36;99338.13;;;31.14;35.79
65175;BME280;51761;42.126;24.752;2023-05-23T07:28:04;99346.03;;;30.86;38.45
65175;BME280;51761;42.126;24.752;2023-05-23T07:30:30;99280.47;;;30.86;36.08
65175;BME280;51761;42.126;24.752;2023-05-23T07:32:55;99317.56;;;32.05;33.98
65175;BME280;51761;42.126;24.752;2023-05-23T07:35:21;99334.53;;;32.16;34.65
65175;BME280;51761;42.126;24.752;2023-05-23T07:37:53;99339.72;;;32.25;33.05
65175;BME280;51761;42.126;24.752;2023-05-23T07:40:19;99342.22;;;32.36;34.41
65175;BME280;51761;42.126;24.752;2023-05-23T07:42:46;99340.69;;;32.20;33.34
65175;BME280;51761;42.126;24.752;2023-05-23T07:45:11;99324.09;;;32.28;32.06
65175;BME280;51761;42.126;24.752;2023-05-23T07:47:37;99341.59;;;32.83;33.42
65175;BME280;51761;42.126;24.752;2023-05-23T07:50:03;99338.34;;;31.96;32.79
65175;BME280;51761;42.126;24.752;2023-05-23T07:52:29;99323.53;;;32.30;32.99
65175;BME280;51761;42.126;24.752;2023-05-23T07:54:56;99309.41;;;32.71;32.57
65175;BME280;51761;42.126;24.752;2023-05-23T07:57:22;99328.97;;;33.02;31.61
65175;BME280;51761;42.126;24.752;2023-05-23T07:59:49;99337.00;;;33.26;31.10
65175;BME280;51761;42.126;24.752;2023-05-23T08:02:15;99335.34;;;33.01;29.84
65175;BME280;51761;42.126;24.752;2023-05-23T08:04:41;99331.28;;;33.04;29.86
65175;BME280;51761;42.126;24.752;2023-05-23T08:07:07;99331.56;;;32.61;31.18
65175;BME280;51761;42.126;24.752;2023-05-23T08:09:34;99327.94;;;33.30;29.66
65175;BME280;51761;42.126;24.752;2023-05-23T08:12:00;99322.59;;;33.11;28.89
65175;BME280;51761;42.126;24.752;2023-05-23T08:14:25;99312.91;;;33.56;29.58
65175;BME280;51761;42.126;24.752;2023-05-23T08:16:51;99327.81;;;34.33;27.41
65175;BME280;51761;42.126;24.752;2023-05-23T08:19:16;99328.72;;;34.19;27.60
65175;BME280;51761;42.126;24.752;2023-05-23T08:21:42;99326.78;;;34.38;26.74
65175;BME280;51761;42.126;24.752;2023-05-23T08:24:07;99322.25;;;34.86;27.95
65175;BME280;51761;42.126;24.752;2023-05-23T08:26:33;99322.25;;;33.79;29.31
65175;BME280;51761;42.126;24.752;2023-05-23T08:29:00;99329.47;;;33.63;28.20
65175;BME280;51761;42.126;24.752;2023-05-23T08:31:27;99327.13;;;33.29;28.35
65175;BME280;51761;42.126;24.752;2023-05-23T08:33:53;99298.41;;;33.88;28.14
65175;BME280;51761;42.126;24.752;2023-05-23T08:36:18;99299.50;;;33.36;28.91
65175;BME280;51761;42.126;24.752;2023-05-23T08:38:44;99327.00;;;33.12;28.68
65175;BME280;51761;42.126;24.752;2023-05-23T08:41:17;99308.22;;;32.82;28.51
65175;BME280;51761;42.126;24.752;2023-05-23T08:43:43;99316.94;;;32.74;29.21
65175;BME280;51761;42.126;24.752;2023-05-23T08:46:09;99317.91;;;32.77;28.55
65175;BME280;51761;42.126;24.752;2023-05-23T08:48:37;99296.50;;;32.72;28.01
65175;BME280;51761;42.126;24.752;2023-05-23T08:51:03;99308.06;;;32.57;29.62
65175;BME280;51761;42.126;24.752;2023-05-23T08:53:30;99310.56;;;32.53;28.70
65175;BME280;51761;42.126;24.752;2023-05-23T08:55:57;99318.31;;;32.06;29.77
65175;BME280;51761;42.126;24.752;2023-05-23T08:58:29;99316.94;;;31.99;31.78
65175;BME280;51761;42.126;24.752;2023-05-23T09:00:54;99307.41;;;31.31;30.33
65175;BME280;51761;42.126;24.752;2023-05-23T09:03:21;99313.16;;;31.24;29.97
65175;BME280;51761;42.126;24.752;2023-05-23T09:05:48;99300.31;;;30.97;31.36
65175;BME280;51761;42.126;24.752;2023-05-23T09:08:15;99289.25;;;30.73;30.91
65175;BME280;51761;42.126;24.752;2023-05-23T09:10:41;99306.94;;;31.13;33.05
65175;BME280;51761;42.126;24.752;2023-05-23T09:13:07;99312.41;;;30.88;33.98
65175;BME280;51761;42.126;24.752;2023-05-23T09:15:34;99288.78;;;30.34;31.21
65175;BME280;51761;42.126;24.752;2023-05-23T09:18:00;99295.94;;;30.40;32.52
65175;BME280;51761;42.126;24.752;2023-05-23T09:20:27;99308.88;;;30.19;31.85
65175;BME280;51761;42.126;24.752;2023-05-23T09:22:54;99306.06;;;29.32;32.76
65175;BME280;51761;42.126;24.752;2023-05-23T09:25:19;99297.94;;;28.37;34.85
65175;BME280;51761;42.126;24.752;2023-05-23T09:27:45;99299.50;;;28.38;37.16
65175;BME280;51761;42.126;24.752;2023-05-23T09:30:11;99302.59;;;28.40;36.08
65175;BME280;51761;42.126;24.752;2023-05-23T09:32:38;99293.91;;;28.79;35.46
65175;BME280;51761;42.126;24.752;2023-05-23T09:35:05;99301.69;;;28.58;36.99
65175;BME280;51761;42.126;24.752;2023-05-23T09:37:39;99309.69;;;29.12;34.97
65175;BME280;51761;42.126;24.752;2023-05-23T09:40:09;99295.81;;;28.90;34.93
65175;BME280;51761;42.126;24.752;2023-05-23T09:42:40;99280.97;;;28.99;34.54
65175;BME280;51761;42.126;24.752;2023-05-23T09:45:07;99291.91;;;28.87;35.79
65175;BME280;51761;42.126;24.752;2023-05-23T09:47:33;99294.06;;;28.61;36.08
65175;BME280;51761;42.126;24.752;2023-05-23T09:49:58;99295.50;;;28.41;35.99
65175;BME280;51761;42.126;24.752;2023-05-23T09:52:24;99264.09;;;28.04;36.58
65175;BME280;51761;42.126;24.752;2023-05-23T09:54:50;99291.47;;;28.05;36.62
65175;BME280;51761;42.126;24.752;2023-05-23T09:57:15;99275.38;;;28.28;35.35
65175;BME280;51761;42.126;24.752;2023-05-23T09:59:48;99295.28;;;28.39;33.21
65175;BME280;51761;42.126;24.752;2023-05-23T10:02:16;99294.16;;;28.16;38.13
65175;BME280;51761;42.126;24.752;2023-05-23T10:04:48;99297.19;;;27.61;36.67
65175;BME280;51761;42.126;24.752;2023-05-23T10:07:19;99221.47;;;27.20;39.02
65175;BME280;51761;42.126;24.752;2023-05-23T10:10:02;99289.25;;;27.23;38.27
65175;BME280;51761;42.126;24.752;2023-05-23T10:15:00;99286.66;;;26.82;39.83
65175;BME280;51761;42.126;24.752;2023-05-23T10:17:38;99290.53;;;27.22;41.31
65175;BME280;51761;42.126;24.752;2023-05-23T10:20:10;99281.50;;;27.49;38.91
65175;BME280;51761;42.126;24.752;2023-05-23T10:22:39;99278.31;;;27.53;38.63
65175;BME280;51761;42.126;24.752;2023-05-23T10:25:05;99285.25;;;27.57;35.46
65175;BME280;51761;42.126;24.752;2023-05-23T10:27:32;99263.59;;;27.74;39.07
65175;BME280;51761;42.126;24.752;2023-05-23T10:29:58;99268.28;;;28.03;38.36
65175;BME280;51761;42.126;24.752;2023-05-23T10:32:25;99272.81;;;27.99;36.79
65175;BME280;51761;42.126;24.752;2023-05-23T10:34:58;99272.78;;;27.86;39.19
65175;BME280;51761;42.126;24.752;2023-05-23T10:40:06;99265.94;;;27.76;38.57
65175;BME280;51761;42.126;24.752;2023-05-23T10:45:15;99259.66;;;27.59;37.15
65175;BME280;51761;42.126;24.752;2023-05-23T10:47:40;99256.56;;;28.01;39.05
65175;BME280;51761;42.126;24.752;2023-05-23T10:50:06;99253.81;;;28.61;36.39
65175;BME280;51761;42.126;24.752;2023-05-23T10:52:40;99259.78;;;29.22;33.19
65175;BME280;51761;42.126;24.752;2023-05-23T10:55:15;99240.84;;;29.47;33.33
65175;BME280;51761;42.126;24.752;2023-05-23T10:57:44;99272.34;;;29.32;34.21
65175;BME280;51761;42.126;24.752;2023-05-23T11:00:14;99262.09;;;29.44;33.72
65175;BME280;51761;42.126;24.752;2023-05-23T11:02:53;99252.69;;;29.43;33.50
65175;BME280;51761;42.126;24.752;2023-05-23T11:05:21;99258.97;;;29.22;34.27
65175;BME280;51761;42.126;24.752;2023-05-23T11:10:31;99263.41;;;28.76;33.78
65175;BME280;51761;42.126;24.752;2023-05-23T11:13:05;99255.28;;;29.01;35.35
65175;BME280;51761;42.126;24.752;2023-05-23T11:15:41;99204.78;;;28.92;33.09
65175;BME280;51761;42.126;24.752;2023-05-23T11:18:07;99263.69;;;29.32;33.44
65175;BME280;51761;42.126;24.752;2023-05-23T11:20:36;99246.75;;;29.62;33.08
65175;BME280;51761;42.126;24.752;2023-05-23T11:23:04;99243.28;;;30.04;33.57
65175;BME280;51761;42.126;24.752;2023-05-23T11:25:41;99257.78;;;30.19;36.46
65175;BME280;51761;42.126;24.752;2023-05-23T11:28:08;99254.84;;;30.40;31.27
65175;BME280;51761;42.126;24.752;2023-05-23T11:30:35;99240.03;;;29.87;32.80
65175;BME280;51761;42.126;24.752;2023-05-23T11:33:13;99256.91;;;29.22;35.82
65175;BME280;51761;42.126;24.752;2023-05-23T11:35:44;99261.84;;;29.01;36.38
65175;BME280;51761;42.126;24.752;2023-05-23T11:38:11;99257.50;;;28.48;36.96
65175;BME280;51761;42.126;24.752;2023-05-23T11:40:43;99263.88;;;28.28;36.69
65175;BME280;51761;42.126;24.752;2023-05-23T11:43:10;99235.41;;;28.30;35.40
65175;BME280;51761;42.126;24.752;2023-05-23T11:45:37;99243.72;;;28.80;33.40
65175;BME280;51761;42.126;24.752;2023-05-23T11:48:07;99265.66;;;29.37;35.67
65175;BME280;51761;42.126;24.752;2023-05-23T11:50:34;99266.78;;;29.34;32.22
65175;BME280;51761;42.126;24.752;2023-05-23T11:53:07;99263.59;;;29.58;33.25
65175;BME280;51761;42.126;24.752;2023-05-23T11:55:32;99266.22;;;28.43;38.42
65175;BME280;51761;42.126;24.752;2023-05-23T11:57:59;99281.78;;;26.96;42.76
65175;BME280;51761;42.126;24.752;2023-05-23T12:00:25;99244.44;;;26.22;45.04
65175;BME280;51761;42.126;24.752;2023-05-23T12:02:50;99269.75;;;25.94;46.24
65175;BME280;51761;42.126;24.752;2023-05-23T12:05:16;99303.72;;;26.03;44.47
65175;BME280;51761;42.126;24.752;2023-05-23T12:07:44;99277.94;;;25.50;45.30
65175;BME280;51761;42.126;24.752;2023-05-23T12:10:11;99285.41;;;25.88;43.69
65175;BME280;51761;42.126;24.752;2023-05-23T12:12:37;99256.50;;;25.91;42.34
65175;BME280;51761;42.126;24.752;2023-05-23T12:15:03;99250.84;;;26.09;41.83
65175;BME280;51761;42.126;24.752;2023-05-23T12:17:29;99235.25;;;26.29;42.24
65175;BME280;51761;42.126;24.752;2023-05-23T12:19:55;99240.81;;;25.74;42.95
65175;BME280;51761;42.126;24.752;2023-05-23T12:22:24;99258.47;;;25.72;44.22
65175;BME280;51761;42.126;24.752;2023-05-23T12:24:53;99241.69;;;25.63;43.99
65175;BME280;51761;42.126;24.752;2023-05-23T12:27:29;99253.00;;;25.74;42.23
65175;BME280;51761;42.126;24.752;2023-05-23T12:30:10;99254.47;;;25.57;43.77
65175;BME280;51761;42.126;24.752;2023-05-23T12:32:40;99248.16;;;25.64;43.24
65175;BME280;51761;42.126;24.752;2023-05-23T12:35:10;99253.38;;;25.65;42.86
65175;BME280;51761;42.126;24.752;2023-05-23T12:37:44;99244.00;;;25.94;41.72
65175;BME280;51761;42.126;24.752;2023-05-23T12:40:16;99241.50;;;26.51;41.02
65175;BME280;51761;42.126;24.752;2023-05-23T12:45:13;99233.75;;;26.65;41.80
65175;BME280;51761;42.126;24.752;2023-05-23T12:47:39;99224.13;;;26.99;39.85
65175;BME280;51761;42.126;24.752;2023-05-23T12:50:05;99219.34;;;27.39;38.70
65175;BME280;51761;42.126;24.752;2023-05-23T12:52:31;99197.78;;;27.63;39.00
65175;BME280;51761;42.126;24.752;2023-05-23T12:54:56;99197.69;;;28.21;38.36
65175;BME280;51761;42.126;24.752;2023-05-23T12:57:21;99203.56;;;28.28;38.04
65175;BME280;51761;42.126;24.752;2023-05-23T12:59:47;99202.66;;;28.59;37.26
65175;BME280;51761;42.126;24.752;2023-05-23T13:02:12;99188.22;;;28.13;36.98